createdAt,value
2023-03-08T00:00:57.343Z,395.00
2023-03-08T00:04:57.529Z,388.00
2023-03-08T00:08:57.577Z,387.00
2023-03-08T00:12:57.766Z,391.00
2023-03-08T00:16:57.963Z,388.00
2023-03-08T00:20:58.082Z,388.00
2023-03-08T00:24:58.220Z,390.00
2023-03-08T00:28:58.413Z,393.00
2023-03-08T00:32:58.531Z,393.00
2023-03-08T00:36:58.763Z,389.00
2023-03-08T00:40:58.959Z,392.00
2023-03-08T00:44:59.078Z,387.00
2023-03-08T00:48:59.250Z,391.00
2023-03-08T00:52:59.483Z,390.00
2023-03-08T00:56:59.630Z,391.00
2023-03-08T01:00:59.962Z,392.00
2023-03-08T01:05:00.046Z,394.00
2023-03-08T01:09:00.281Z,390.00
2023-03-08T01:13:00.434Z,388.00
2023-03-08T01:17:00.668Z,392.00
2023-03-08T01:21:00.868Z,390.00
2023-03-08T01:25:01.063Z,389.00
2023-03-08T01:29:01.272Z,391.00
2023-03-08T01:33:01.466Z,390.00
2023-03-08T01:37:01.687Z,391.00
2023-03-08T01:41:01.925Z,393.00
2023-03-08T01:45:01.885Z,392.00
2023-03-08T01:49:01.872Z,389.00
2023-03-08T01:53:01.832Z,385.00
2023-03-08T01:57:01.754Z,383.00
2023-03-08T02:01:01.813Z,385.00
2023-03-08T02:05:01.693Z,386.00
2023-03-08T02:09:01.630Z,387.00
2023-03-08T02:13:01.593Z,391.00
2023-03-08T02:17:01.550Z,388.00
2023-03-08T02:21:01.558Z,386.00
2023-03-08T02:25:01.477Z,388.00
2023-03-08T02:29:01.499Z,388.00
2023-03-08T02:33:01.468Z,389.00
2023-03-08T02:37:01.419Z,389.00
2023-03-08T02:41:01.416Z,390.00
2023-03-08T02:45:01.351Z,389.00
2023-03-08T02:49:01.325Z,394.00
2023-03-08T02:53:01.297Z,392.00
2023-03-08T02:57:01.205Z,389.00
2023-03-08T03:01:01.223Z,389.00
2023-03-08T03:05:01.429Z,388.00
2023-03-08T03:09:01.438Z,381.00
2023-03-08T03:13:01.663Z,380.00
2023-03-08T03:17:01.870Z,385.00
2023-03-08T03:21:02.317Z,382.00
2023-03-08T03:25:01.780Z,385.00
2023-03-08T03:29:01.752Z,379.00
2023-03-08T03:33:01.696Z,378.00
2023-03-08T03:37:01.647Z,375.00
2023-03-08T03:41:01.646Z,382.00
2023-03-08T03:45:01.630Z,382.00
2023-03-08T03:49:01.567Z,375.00
2023-03-08T03:53:01.630Z,375.00
2023-03-08T03:57:01.874Z,374.00
2023-03-08T04:01:01.819Z,377.00
2023-03-08T04:05:01.789Z,382.00
2023-03-08T04:09:01.763Z,384.00
2023-03-08T04:13:01.693Z,385.00
2023-03-08T04:17:01.712Z,383.00
2023-03-08T04:21:01.615Z,382.00
2023-03-08T04:25:01.634Z,381.00
2023-03-08T04:29:01.571Z,381.00
2023-03-08T04:33:01.553Z,383.00
2023-03-08T04:37:01.516Z,381.00
2023-03-08T04:41:01.590Z,378.00
2023-03-08T04:45:01.430Z,383.00
2023-03-08T04:49:01.394Z,381.00
2023-03-08T04:53:01.354Z,376.00
2023-03-08T04:57:01.352Z,377.00
2023-03-08T05:01:01.354Z,375.00
2023-03-08T05:05:01.335Z,377.00
2023-03-08T05:09:01.211Z,381.00
2023-03-08T05:13:01.227Z,383.00
2023-03-08T05:17:02.569Z,386.00
2023-03-08T05:21:01.086Z,387.00
2023-03-08T05:25:01.091Z,387.00
2023-03-08T05:29:01.022Z,392.00
2023-03-08T05:33:01.008Z,400.00
2023-03-08T05:37:01.035Z,400.00
2023-03-08T05:41:00.917Z,402.00
2023-03-08T05:45:00.914Z,397.00
2023-03-08T05:49:00.868Z,396.00
2023-03-08T05:53:00.836Z,393.00
2023-03-08T05:57:00.769Z,393.00
2023-03-08T06:01:00.728Z,393.00
2023-03-08T06:05:00.673Z,395.00
2023-03-08T06:09:00.678Z,396.00
2023-03-08T06:13:00.679Z,396.00
2023-03-08T06:17:00.751Z,398.00
2023-03-08T06:21:00.552Z,398.00
2023-03-08T06:25:00.529Z,397.00
2023-03-08T06:29:00.530Z,396.00
2023-03-08T06:33:00.635Z,424.00
2023-03-08T06:37:00.718Z,457.00
2023-03-08T06:41:00.794Z,479.00
2023-03-08T06:45:00.955Z,505.00
2023-03-08T06:49:01.140Z,593.00
2023-03-08T06:53:01.184Z,612.00
2023-03-08T06:57:01.319Z,652.00
2023-03-08T07:01:01.490Z,689.00
2023-03-08T07:05:01.659Z,724.00
2023-03-08T07:09:01.782Z,751.00
2023-03-08T07:13:02.814Z,774.00
2023-03-08T07:17:02.884Z,814.00
2023-03-08T07:21:01.988Z,823.00
2023-03-08T07:25:02.075Z,850.00
2023-03-08T07:29:02.034Z,870.00
2023-03-08T07:33:02.040Z,886.00
2023-03-08T07:37:02.048Z,908.00
2023-03-08T07:41:01.980Z,747.00
2023-03-08T07:45:01.949Z,832.00
2023-03-08T07:49:01.899Z,818.00
2023-03-08T07:53:01.851Z,838.00
2023-03-08T07:57:01.772Z,863.00
2023-03-08T08:01:01.760Z,887.00
2023-03-08T08:05:01.766Z,897.00
2023-03-08T08:09:01.706Z,911.00
2023-03-08T08:13:01.733Z,922.00
2023-03-08T08:17:01.700Z,928.00
2023-03-08T08:21:01.570Z,937.00
2023-03-08T08:25:01.740Z,941.00
2023-03-08T08:29:01.932Z,937.00
2023-03-08T08:33:01.908Z,911.00
2023-03-08T08:37:01.936Z,878.00
2023-03-08T08:41:01.852Z,862.00
2023-03-08T08:45:01.859Z,866.00
2023-03-08T08:49:01.786Z,876.00
2023-03-08T08:53:04.386Z,888.00
2023-03-08T08:57:01.701Z,905.00
2023-03-08T09:01:01.684Z,920.00
2023-03-08T09:05:01.708Z,917.00
2023-03-08T09:09:01.585Z,888.00
2023-03-08T09:13:01.610Z,890.00
2023-03-08T09:17:01.535Z,901.00
2023-03-08T09:21:01.511Z,908.00
2023-03-08T09:25:01.447Z,916.00
2023-03-08T09:29:01.420Z,936.00
2023-03-08T09:33:01.381Z,644.00
2023-03-08T09:37:02.686Z,538.00
2023-03-08T09:41:01.359Z,481.00
2023-03-08T09:45:01.326Z,571.00
2023-03-08T09:49:01.270Z,629.00
2023-03-08T09:53:01.262Z,674.00
2023-03-08T09:57:01.178Z,720.00
2023-03-08T10:01:01.387Z,760.00
2023-03-08T10:05:12.312Z,791.00
2023-03-08T10:09:02.425Z,821.00
2023-03-08T10:13:01.338Z,869.00
2023-03-08T10:17:01.375Z,880.00
2023-03-08T10:21:01.277Z,904.00
2023-03-08T10:25:01.223Z,926.00
2023-03-08T10:29:01.391Z,932.00
2023-03-08T10:33:01.264Z,943.00
2023-03-08T10:37:01.266Z,958.00
2023-03-08T10:41:01.193Z,976.00
2023-03-08T10:45:02.990Z,1006.00
2023-03-08T10:49:01.128Z,1012.00
2023-03-08T10:53:01.127Z,1009.00
2023-03-08T10:57:01.370Z,990.00
2023-03-08T11:01:01.247Z,981.00
2023-03-08T11:05:01.606Z,962.00
2023-03-08T11:09:01.501Z,936.00
2023-03-08T11:13:01.133Z,940.00
2023-03-08T11:17:01.110Z,941.00
2023-03-08T11:21:01.062Z,948.00
2023-03-08T11:25:00.997Z,995.00
2023-03-08T11:29:01.169Z,967.00
2023-03-08T11:33:01.208Z,938.00
2023-03-08T11:37:00.901Z,938.00
2023-03-08T11:41:00.909Z,955.00
2023-03-08T11:45:00.996Z,978.00
2023-03-08T11:49:01.186Z,985.00
2023-03-08T11:53:01.234Z,984.00
2023-03-08T11:57:01.340Z,977.00
2023-03-08T12:01:01.432Z,1016.00
2023-03-08T12:05:01.538Z,981.00
2023-03-08T12:09:01.625Z,998.00
2023-03-08T12:13:01.581Z,1014.00
2023-03-08T12:17:01.891Z,1098.00
2023-03-08T12:21:01.502Z,1091.00
2023-03-08T12:25:01.567Z,812.00
2023-03-08T12:29:01.703Z,770.00
2023-03-08T12:33:02.037Z,687.00
2023-03-08T12:37:01.942Z,629.00
2023-03-08T12:41:02.066Z,578.00
2023-03-08T12:45:02.196Z,545.00
2023-03-08T12:49:02.356Z,526.00
2023-03-08T12:53:02.306Z,504.00
2023-03-08T12:57:02.376Z,483.00
2023-03-08T13:01:02.574Z,474.00
2023-03-08T13:05:02.651Z,543.00
2023-03-08T13:09:02.702Z,633.00
2023-03-08T13:13:02.879Z,653.00
2023-03-08T13:17:03.032Z,669.00
2023-03-08T13:21:03.098Z,672.00
2023-03-08T13:25:03.199Z,683.00
2023-03-08T13:29:03.234Z,698.00
2023-03-08T13:33:03.263Z,702.00
2023-03-08T13:37:03.406Z,715.00
2023-03-08T13:41:03.614Z,720.00
2023-03-08T13:45:03.618Z,726.00
2023-03-08T13:49:03.577Z,728.00
2023-03-08T13:53:03.539Z,724.00
2023-03-08T13:57:04.001Z,729.00
2023-03-08T14:01:03.558Z,742.00
2023-03-08T14:05:03.516Z,746.00
2023-03-08T14:09:03.468Z,754.00
2023-03-08T14:13:03.341Z,762.00
2023-03-08T14:17:03.394Z,765.00
2023-03-08T14:21:03.298Z,766.00
2023-03-08T14:25:03.439Z,769.00
2023-03-08T14:29:03.626Z,777.00
2023-03-08T14:33:03.775Z,777.00
2023-03-08T14:37:03.945Z,776.00
2023-03-08T14:41:04.140Z,773.00
2023-03-08T14:45:04.301Z,765.00
2023-03-08T14:49:04.475Z,765.00
2023-03-08T14:53:04.662Z,746.00
2023-03-08T14:57:04.660Z,709.00
2023-03-08T15:01:04.592Z,672.00
2023-03-08T15:05:04.529Z,646.00
2023-03-08T15:09:04.508Z,618.00
2023-03-08T15:13:04.498Z,603.00
2023-03-08T15:17:04.443Z,578.00
2023-03-08T15:21:04.411Z,551.00
2023-03-08T15:25:04.390Z,548.00
2023-03-08T15:29:04.459Z,545.00
2023-03-08T15:33:04.378Z,535.00
2023-03-08T15:37:04.282Z,529.00
2023-03-08T15:41:05.296Z,524.00
2023-03-08T15:45:04.223Z,524.00
2023-03-08T15:49:04.192Z,523.00
2023-03-08T15:53:04.164Z,522.00
2023-03-08T15:57:04.071Z,520.00
2023-03-08T16:01:04.078Z,519.00
2023-03-08T16:05:04.128Z,518.00
2023-03-08T16:09:04.127Z,516.00
2023-03-08T16:13:04.212Z,511.00
2023-03-08T16:17:04.246Z,506.00
2023-03-08T16:21:04.280Z,506.00
2023-03-08T16:25:04.438Z,504.00
2023-03-08T16:29:04.318Z,503.00
2023-03-08T16:33:04.430Z,505.00
2023-03-08T16:37:04.521Z,504.00
2023-03-08T16:41:13.583Z,500.00
2023-03-08T16:45:05.548Z,497.00
2023-03-08T16:49:04.568Z,496.00
2023-03-08T16:53:04.536Z,492.00
2023-03-08T16:57:17.805Z,490.00
2023-03-08T17:01:05.496Z,489.00
2023-03-08T17:05:04.425Z,487.00
2023-03-08T17:09:04.382Z,487.00
2023-03-08T17:13:04.284Z,483.00
2023-03-08T17:17:04.342Z,485.00
2023-03-08T17:21:04.410Z,482.00
2023-03-08T17:25:04.541Z,482.00
2023-03-08T17:29:04.615Z,477.00
2023-03-08T17:33:05.069Z,481.00
2023-03-08T17:37:04.881Z,475.00
2023-03-08T17:41:05.062Z,476.00
2023-03-08T17:45:05.133Z,471.00
2023-03-08T17:49:05.300Z,469.00
2023-03-08T17:53:05.496Z,470.00
2023-03-08T17:57:05.640Z,469.00
2023-03-08T18:01:05.818Z,469.00
2023-03-08T18:05:05.956Z,468.00
2023-03-08T18:09:06.137Z,462.00
2023-03-08T18:13:06.302Z,461.00
2023-03-08T18:17:06.444Z,460.00
2023-03-08T18:21:13.507Z,454.00
2023-03-08T18:25:07.659Z,455.00
2023-03-08T18:29:06.596Z,452.00
2023-03-08T18:33:06.698Z,456.00
2023-03-08T18:37:06.721Z,451.00
2023-03-08T18:41:06.698Z,452.00
2023-03-08T18:45:06.589Z,453.00
2023-03-08T18:49:06.602Z,456.00
2023-03-08T18:53:06.634Z,449.00
2023-03-08T18:57:06.505Z,451.00
2023-03-08T19:01:06.504Z,450.00
2023-03-08T19:05:06.424Z,445.00
2023-03-08T19:09:06.414Z,451.00
2023-03-08T19:13:06.492Z,454.00
2023-03-08T19:17:06.482Z,451.00
2023-03-08T19:21:06.466Z,451.00
2023-03-08T19:25:06.427Z,446.00
2023-03-08T19:29:06.364Z,443.00
2023-03-08T19:33:06.342Z,443.00
2023-03-08T19:37:06.321Z,445.00
2023-03-08T19:41:06.231Z,439.00
2023-03-08T19:45:06.208Z,433.00
2023-03-08T19:49:06.195Z,425.00
2023-03-08T19:53:06.178Z,420.00
2023-03-08T19:57:06.373Z,417.00
2023-03-08T20:01:06.551Z,417.00
2023-03-08T20:05:06.704Z,409.00
2023-03-08T20:09:06.764Z,411.00
2023-03-08T20:13:06.723Z,411.00
2023-03-08T20:17:06.881Z,410.00
2023-03-08T20:21:06.789Z,409.00
2023-03-08T20:25:06.898Z,408.00
2023-03-08T20:29:06.975Z,409.00
2023-03-08T20:33:07.002Z,410.00
2023-03-08T20:37:06.934Z,411.00
2023-03-08T20:41:07.033Z,414.00
2023-03-08T20:45:07.053Z,412.00
2023-03-08T20:49:07.243Z,412.00
2023-03-08T20:53:07.370Z,409.00
2023-03-08T20:57:07.438Z,412.00
2023-03-08T21:01:07.415Z,411.00
2023-03-08T21:05:07.585Z,411.00
2023-03-08T21:09:07.417Z,414.00
2023-03-08T21:13:07.448Z,413.00
2023-03-08T21:17:07.472Z,414.00
2023-03-08T21:21:07.491Z,409.00
2023-03-08T21:25:07.553Z,411.00
2023-03-08T21:29:07.528Z,416.00
2023-03-08T21:33:07.523Z,416.00
2023-03-08T21:37:08.149Z,411.00
2023-03-08T21:41:07.626Z,409.00
2023-03-08T21:45:07.652Z,410.00
2023-03-08T21:49:07.678Z,408.00
2023-03-08T21:53:07.756Z,411.00
2023-03-08T21:57:07.703Z,401.00
2023-03-08T22:01:07.749Z,410.00
2023-03-08T22:05:07.789Z,411.00
2023-03-08T22:09:07.816Z,403.00
2023-03-08T22:13:07.877Z,403.00
2023-03-08T22:17:07.907Z,401.00
2023-03-08T22:21:07.934Z,404.00
2023-03-08T22:25:07.979Z,404.00
2023-03-08T22:29:08.005Z,403.00
2023-03-08T22:33:08.059Z,404.00
2023-03-08T22:37:08.134Z,401.00
2023-03-08T22:41:08.177Z,405.00
2023-03-08T22:45:08.247Z,409.00
2023-03-08T22:49:08.296Z,405.00
2023-03-08T22:53:08.382Z,405.00
2023-03-08T22:57:08.419Z,401.00
2023-03-08T23:01:08.510Z,401.00
2023-03-08T23:05:08.539Z,400.00
2023-03-08T23:09:08.675Z,400.00
2023-03-08T23:13:11.052Z,400.00
2023-03-08T23:17:08.684Z,398.00
2023-03-08T23:21:08.653Z,394.00
2023-03-08T23:25:08.569Z,403.00
2023-03-08T23:29:08.561Z,401.00
2023-03-08T23:33:08.526Z,402.00
2023-03-08T23:37:08.513Z,403.00
2023-03-08T23:41:08.468Z,403.00
2023-03-08T23:45:08.402Z,401.00
2023-03-08T23:49:08.358Z,396.00
2023-03-08T23:53:08.480Z,399.00
2023-03-08T23:57:08.274Z,397.00
